createdAt,value
2023-12-09T00:00:40.238Z,996.6125
2023-12-09T00:01:41.273Z,996.6741
2023-12-09T00:02:40.287Z,996.6398
2023-12-09T00:03:41.386Z,996.6742
2023-12-09T00:04:40.235Z,996.6783
2023-12-09T00:05:40.358Z,996.6967
2023-12-09T00:06:41.332Z,996.6672
2023-12-09T00:07:40.252Z,996.72
2023-12-09T00:08:41.232Z,996.7175
2023-12-09T00:09:40.229Z,996.705
2023-12-09T00:10:40.288Z,996.7459
2023-12-09T00:11:41.279Z,996.7475
2023-12-09T00:12:40.391Z,996.7542
2023-12-09T00:13:41.234Z,996.7814
2023-12-09T00:14:40.297Z,996.7399
2023-12-09T00:15:44.595Z,996.8094
2023-12-09T00:16:41.256Z,996.8123
2023-12-09T00:17:40.272Z,996.7958
2023-12-09T00:18:41.389Z,996.7725
2023-12-09T00:19:40.323Z,996.7665
2023-12-09T00:20:41.296Z,996.743
2023-12-09T00:21:41.346Z,996.739
2023-12-09T00:22:40.313Z,996.6942
2023-12-09T00:23:47.540Z,996.72
2023-12-09T00:24:40.287Z,996.7536
2023-12-09T00:25:41.278Z,996.6968
2023-12-09T00:26:41.305Z,996.7291
2023-12-09T00:27:40.322Z,996.7031
2023-12-09T00:28:41.340Z,996.6687
2023-12-09T00:29:40.347Z,996.6908
2023-12-09T00:30:41.356Z,996.7536
2023-12-09T00:31:41.313Z,996.7195
2023-12-09T00:32:41.397Z,996.7153
2023-12-09T00:33:40.408Z,996.7243
2023-12-09T00:34:40.310Z,996.7339
2023-12-09T00:35:41.355Z,996.7051
2023-12-09T00:36:41.340Z,996.6839
2023-12-09T00:37:41.293Z,996.6975
2023-12-09T00:38:40.343Z,996.6714
2023-12-09T00:39:40.333Z,996.657
2023-12-09T00:40:41.330Z,996.6342
2023-12-09T00:41:41.297Z,996.6361
2023-12-09T00:42:41.335Z,996.6183
2023-12-09T00:43:40.323Z,996.6443
2023-12-09T00:44:41.376Z,996.6392
2023-12-09T00:45:40.355Z,996.6814
2023-12-09T00:46:41.320Z,996.6538
2023-12-09T00:47:41.396Z,996.6537
2023-12-09T00:48:40.442Z,996.6131
2023-12-09T00:49:41.494Z,996.6324
2023-12-09T00:50:40.331Z,996.6275
2023-12-09T00:51:41.369Z,996.6143
2023-12-09T00:52:41.342Z,996.6672
2023-12-09T00:53:40.336Z,996.651
2023-12-09T00:54:41.482Z,996.6157
2023-12-09T00:55:40.390Z,996.6443
2023-12-09T00:56:41.351Z,996.6648
2023-12-09T00:57:41.325Z,996.6619
2023-12-09T00:58:40.384Z,996.6646
2023-12-09T00:59:41.365Z,996.6599
2023-12-09T01:00:40.496Z,996.6458
2023-12-09T01:01:41.380Z,996.6179
2023-12-09T01:02:40.461Z,996.6747
2023-12-09T01:03:40.466Z,996.683
2023-12-09T01:04:41.458Z,996.6898
2023-12-09T01:05:40.358Z,996.7011
2023-12-09T01:06:41.382Z,996.7096
2023-12-09T01:07:40.398Z,996.7156
2023-12-09T01:08:40.408Z,996.7506
2023-12-09T01:09:41.414Z,996.743
2023-12-09T01:10:40.382Z,996.7783
2023-12-09T01:11:41.410Z,996.7778
2023-12-09T01:12:40.422Z,996.7473
2023-12-09T01:13:41.368Z,996.7228
2023-12-09T01:14:40.378Z,996.7525
2023-12-09T01:15:40.458Z,996.7469
2023-12-09T01:16:41.411Z,996.723
2023-12-09T01:17:40.388Z,996.7217
2023-12-09T01:18:41.499Z,996.6573
2023-12-09T01:19:40.427Z,996.6824
2023-12-09T01:20:40.387Z,996.6735
2023-12-09T01:21:41.489Z,996.71
2023-12-09T01:22:40.439Z,996.6417
2023-12-09T01:23:41.422Z,996.6708
2023-12-09T01:24:40.454Z,996.6824
2023-12-09T01:25:40.435Z,996.695
2023-12-09T01:26:41.488Z,996.6893
2023-12-09T01:27:40.449Z,996.7023
2023-12-09T01:28:41.405Z,996.6945
2023-12-09T01:29:40.455Z,996.6838
2023-12-09T01:30:41.446Z,996.6591
2023-12-09T01:31:41.468Z,996.6722
2023-12-09T01:32:40.592Z,996.7046
2023-12-09T01:33:41.562Z,996.757
2023-12-09T01:34:40.533Z,996.7211
2023-12-09T01:35:41.451Z,996.7463
2023-12-09T01:36:41.455Z,996.7064
2023-12-09T01:37:40.471Z,996.7173
2023-12-09T01:38:41.472Z,996.7501
2023-12-09T01:39:40.434Z,996.7145
2023-12-09T01:40:41.452Z,996.698
2023-12-09T01:41:41.478Z,996.7031
2023-12-09T01:42:45.202Z,996.7065
2023-12-09T01:43:40.431Z,996.6909
2023-12-09T01:44:40.500Z,996.6936
2023-12-09T01:45:41.560Z,996.6447
2023-12-09T01:46:41.444Z,996.6297
2023-12-09T01:47:41.589Z,996.5842
2023-12-09T01:48:40.669Z,996.6072
2023-12-09T01:49:40.705Z,996.5958
2023-12-09T01:50:41.564Z,996.5961
2023-12-09T01:51:41.493Z,996.6306
2023-12-09T01:52:41.506Z,996.5947
2023-12-09T01:53:40.457Z,996.6011
2023-12-09T01:54:40.506Z,996.6238
2023-12-09T01:55:41.519Z,996.6682
2023-12-09T01:56:41.501Z,996.6885
2023-12-09T01:57:41.573Z,996.7098
2023-12-09T01:58:40.493Z,996.6617
2023-12-09T01:59:41.497Z,996.6478
2023-12-09T02:00:40.563Z,996.6511
2023-12-09T02:01:41.522Z,996.6197
2023-12-09T02:02:41.543Z,996.6497
2023-12-09T02:03:40.573Z,996.6373
2023-12-09T02:04:41.573Z,996.6558
2023-12-09T02:05:40.479Z,996.5765
2023-12-09T02:06:41.485Z,996.5922
2023-12-09T02:07:41.510Z,996.6019
2023-12-09T02:08:40.535Z,996.6354
2023-12-09T02:09:41.535Z,996.6124
2023-12-09T02:10:40.497Z,996.617
2023-12-09T02:11:47.891Z,996.6196
2023-12-09T02:12:40.538Z,996.6708
2023-12-09T02:13:40.536Z,996.5876
2023-12-09T02:14:41.527Z,996.565
2023-12-09T02:15:40.509Z,996.6129
2023-12-09T02:16:41.570Z,996.5505
2023-12-09T02:17:40.536Z,996.603
2023-12-09T02:18:40.623Z,996.5643
2023-12-09T02:19:41.566Z,996.5687
2023-12-09T02:20:40.523Z,996.5426
2023-12-09T02:21:41.545Z,996.5009
2023-12-09T02:22:40.562Z,996.503
2023-12-09T02:23:40.595Z,996.4563
2023-12-09T02:24:41.578Z,996.4728
2023-12-09T02:25:40.531Z,996.4278
2023-12-09T02:26:41.591Z,996.4246
2023-12-09T02:27:40.531Z,996.4408
2023-12-09T02:28:52.009Z,996.3708
2023-12-09T02:29:40.583Z,996.3936
2023-12-09T02:30:40.603Z,996.3638
2023-12-09T02:31:41.576Z,996.3535
2023-12-09T02:32:40.734Z,996.3308
2023-12-09T02:33:41.668Z,996.3228
2023-12-09T02:34:40.719Z,996.315
2023-12-09T02:35:40.558Z,996.3276
2023-12-09T02:36:41.605Z,996.275
2023-12-09T02:37:40.613Z,996.2842
2023-12-09T02:38:41.617Z,996.2899
2023-12-09T02:39:40.618Z,996.2651
2023-12-09T02:40:42.690Z,996.2731
2023-12-09T02:41:41.602Z,996.1975
2023-12-09T02:42:40.750Z,996.1956
2023-12-09T02:43:41.563Z,996.1942
2023-12-09T02:44:40.626Z,996.1788
2023-12-09T02:45:41.658Z,996.1903
2023-12-09T02:46:41.580Z,996.1542
2023-12-09T02:47:40.707Z,996.1724
2023-12-09T02:48:41.760Z,996.1559
2023-12-09T02:49:40.662Z,996.1727
2023-12-09T02:50:41.616Z,996.1696
2023-12-09T02:51:41.602Z,996.1635
2023-12-09T02:52:40.624Z,996.117
2023-12-09T02:53:41.585Z,996.1068
2023-12-09T02:54:40.620Z,996.1177
2023-12-09T02:55:41.638Z,996.0971
2023-12-09T02:56:41.590Z,996.1063
2023-12-09T02:57:41.599Z,996.08
2023-12-09T02:58:40.632Z,996.1342
2023-12-09T02:59:40.641Z,996.108
2023-12-09T03:00:41.831Z,996.0906
2023-12-09T03:01:41.673Z,996.0964
2023-12-09T03:02:41.695Z,996.0728
2023-12-09T03:03:40.728Z,996.0665
2023-12-09T03:04:40.727Z,996.048
2023-12-09T03:05:41.643Z,996.0011
2023-12-09T03:06:41.670Z,996.0209
2023-12-09T03:07:41.661Z,996.0139
2023-12-09T03:08:40.666Z,995.9988
2023-12-09T03:09:44.952Z,996.0067
2023-12-09T03:10:40.661Z,995.9963
2023-12-09T03:11:41.670Z,996.0335
2023-12-09T03:12:41.771Z,996.019
2023-12-09T03:13:40.641Z,996.0322
2023-12-09T03:14:41.648Z,996.0005
2023-12-09T03:15:40.715Z,996.0098
2023-12-09T03:16:41.690Z,995.9861
2023-12-09T03:17:41.797Z,996.0179
2023-12-09T03:18:40.704Z,995.9968
2023-12-09T03:19:41.753Z,995.9698
2023-12-09T03:20:40.655Z,995.9568
2023-12-09T03:21:41.701Z,995.9595
2023-12-09T03:22:41.744Z,995.9575
2023-12-09T03:23:40.666Z,995.9352
2023-12-09T03:24:41.649Z,995.9553
2023-12-09T03:25:40.685Z,995.856
2023-12-09T03:26:41.706Z,995.8766
2023-12-09T03:27:40.803Z,995.8753
2023-12-09T03:28:40.678Z,995.8599
2023-12-09T03:29:41.689Z,995.8477
2023-12-09T03:30:40.745Z,995.7592
2023-12-09T03:31:41.726Z,995.7166
2023-12-09T03:32:40.734Z,995.6842
2023-12-09T03:33:40.804Z,995.7205
2023-12-09T03:34:41.684Z,995.6987
2023-12-09T03:35:40.687Z,995.6485
2023-12-09T03:36:41.726Z,995.6564
2023-12-09T03:37:40.740Z,995.6492
2023-12-09T03:38:41.718Z,995.6238
2023-12-09T03:39:40.720Z,995.6724
2023-12-09T03:40:40.681Z,995.6264
2023-12-09T03:41:41.723Z,995.5926
2023-12-09T03:42:40.750Z,995.628
2023-12-09T03:43:41.834Z,995.6247
2023-12-09T03:44:40.719Z,995.5851
2023-12-09T03:45:40.710Z,995.5862
2023-12-09T03:46:41.747Z,995.5719
2023-12-09T03:47:40.741Z,995.5386
2023-12-09T03:48:41.906Z,995.5603
2023-12-09T03:49:40.943Z,995.5535
2023-12-09T03:50:40.714Z,995.5136
2023-12-09T03:51:41.759Z,995.488
2023-12-09T03:52:40.762Z,995.4749
2023-12-09T03:53:41.705Z,995.4819
2023-12-09T03:54:40.754Z,995.5531
2023-12-09T03:55:41.711Z,995.5419
2023-12-09T03:56:41.763Z,995.5636
2023-12-09T03:57:40.810Z,995.5826
2023-12-09T03:58:41.728Z,995.5435
2023-12-09T03:59:40.771Z,995.595
2023-12-09T04:00:41.801Z,995.5574
2023-12-09T04:01:41.757Z,995.6097
2023-12-09T04:02:40.780Z,995.6355
2023-12-09T04:03:41.867Z,995.6303
2023-12-09T04:04:40.777Z,995.6245
2023-12-09T04:05:41.755Z,995.6699
2023-12-09T04:06:41.791Z,995.6511
2023-12-09T04:07:41.808Z,995.6577
2023-12-09T04:08:40.801Z,995.665
2023-12-09T04:09:40.815Z,995.7126
2023-12-09T04:10:41.807Z,995.7004
2023-12-09T04:11:41.789Z,995.7548
2023-12-09T04:12:41.854Z,995.795
2023-12-09T04:13:40.767Z,995.7915
2023-12-09T04:14:40.793Z,995.7724
2023-12-09T04:15:41.837Z,995.6817
2023-12-09T04:16:41.770Z,995.7294
2023-12-09T04:17:41.889Z,995.6869
2023-12-09T04:18:40.875Z,995.7162
2023-12-09T04:19:40.852Z,995.6886
2023-12-09T04:20:41.901Z,995.6982
2023-12-09T04:21:41.799Z,995.6866
2023-12-09T04:22:41.787Z,995.6701
2023-12-09T04:23:40.829Z,995.6368
2023-12-09T04:24:47.748Z,995.6164
2023-12-09T04:25:40.773Z,995.6717
2023-12-09T04:26:41.872Z,995.6617
2023-12-09T04:27:41.784Z,995.7014
2023-12-09T04:28:40.824Z,995.7073
2023-12-09T04:29:41.841Z,995.7043
2023-12-09T04:30:40.803Z,995.7139
2023-12-09T04:31:41.830Z,995.6686
2023-12-09T04:32:41.831Z,995.71
2023-12-09T04:33:40.894Z,995.6791
2023-12-09T04:34:41.817Z,995.6539
2023-12-09T04:35:40.804Z,995.6599
2023-12-09T04:36:41.911Z,995.6641
2023-12-09T04:37:40.814Z,995.6364
2023-12-09T04:38:40.860Z,995.6437
2023-12-09T04:39:41.868Z,995.6856
2023-12-09T04:40:40.825Z,995.6755
2023-12-09T04:41:41.805Z,995.6595
2023-12-09T04:42:40.901Z,995.6493
2023-12-09T04:43:40.823Z,995.6266
2023-12-09T04:44:41.867Z,995.5576
2023-12-09T04:45:40.852Z,995.5359
2023-12-09T04:46:41.911Z,995.5783
2023-12-09T04:47:40.958Z,995.5367
2023-12-09T04:48:40.935Z,995.433
2023-12-09T04:49:42.099Z,995.4664
2023-12-09T04:50:40.842Z,995.4417
2023-12-09T04:51:41.885Z,995.4109
2023-12-09T04:52:40.833Z,995.4288
2023-12-09T04:53:41.929Z,995.4583
2023-12-09T04:54:40.876Z,995.3894
2023-12-09T04:55:40.871Z,995.4299
2023-12-09T04:56:41.928Z,995.4263
2023-12-09T04:57:40.917Z,995.3537
2023-12-09T04:58:41.864Z,995.3336
2023-12-09T04:59:40.892Z,995.3531
2023-12-09T05:00:40.960Z,995.2941
2023-12-09T05:01:41.883Z,995.3326
2023-12-09T05:02:40.892Z,995.3141
2023-12-09T05:03:42.034Z,995.2783
2023-12-09T05:04:40.865Z,995.2951
2023-12-09T05:05:41.911Z,995.2676
2023-12-09T05:06:41.991Z,995.2525
2023-12-09T05:07:40.868Z,995.2647
2023-12-09T05:08:41.896Z,995.2219
2023-12-09T05:09:40.964Z,995.2572
2023-12-09T05:10:41.916Z,995.265
2023-12-09T05:11:41.951Z,995.2515
2023-12-09T05:12:40.948Z,995.267
2023-12-09T05:13:41.962Z,995.3003
2023-12-09T05:14:40.936Z,995.2789
2023-12-09T05:15:41.999Z,995.3463
2023-12-09T05:16:41.970Z,995.3449
2023-12-09T05:17:41.038Z,995.3156
2023-12-09T05:18:42.066Z,995.3047
2023-12-09T05:19:41.464Z,995.2302
2023-12-09T05:20:41.928Z,995.308
2023-12-09T05:21:42.051Z,995.3002
2023-12-09T05:22:41.914Z,995.303
2023-12-09T05:23:40.906Z,995.2619
2023-12-09T05:24:40.946Z,995.2958
2023-12-09T05:25:41.900Z,995.2275
2023-12-09T05:26:42.012Z,995.2693
2023-12-09T05:27:41.914Z,995.202
2023-12-09T05:28:40.948Z,995.1545
2023-12-09T05:29:44.060Z,995.1071
2023-12-09T05:30:41.984Z,995.1384
2023-12-09T05:31:42.094Z,995.1756
2023-12-09T05:32:41.962Z,995.1602
2023-12-09T05:33:41.049Z,995.2115
2023-12-09T05:34:45.770Z,995.1943
2023-12-09T05:35:40.921Z,995.1822
2023-12-09T05:36:42.036Z,995.1076
2023-12-09T05:37:41.999Z,995.1119
2023-12-09T05:38:40.943Z,995.0803
2023-12-09T05:39:42.023Z,995.0183
2023-12-09T05:40:40.953Z,994.9286
2023-12-09T05:41:41.993Z,994.9437
2023-12-09T05:42:42.016Z,994.9441
2023-12-09T05:43:40.944Z,994.9874
2023-12-09T05:44:41.978Z,994.9537
2023-12-09T05:45:41.042Z,994.9497
2023-12-09T05:46:42.008Z,994.9203
2023-12-09T05:47:42.083Z,994.9368
2023-12-09T05:48:41.180Z,994.9728
2023-12-09T05:49:42.035Z,994.9451
2023-12-09T05:50:40.955Z,994.9626
2023-12-09T05:51:42.091Z,994.9529
2023-12-09T05:52:40.967Z,994.9306
2023-12-09T05:53:41.018Z,994.9062
2023-12-09T05:54:42.061Z,994.887
2023-12-09T05:55:40.990Z,994.8666
2023-12-09T05:56:42.020Z,994.9068
2023-12-09T05:57:41.059Z,994.8909
2023-12-09T05:58:40.995Z,994.9138
2023-12-09T05:59:42.009Z,994.9124
2023-12-09T06:00:41.145Z,994.9447
2023-12-09T06:01:42.024Z,994.9256
2023-12-09T06:02:40.986Z,994.8569
2023-12-09T06:03:42.081Z,994.9556
2023-12-09T06:04:41.056Z,994.9065
2023-12-09T06:05:41.006Z,994.9072
2023-12-09T06:06:42.043Z,994.86
2023-12-09T06:07:40.999Z,994.8811
2023-12-09T06:08:42.088Z,994.8354
2023-12-09T06:09:41.076Z,994.8853
2023-12-09T06:10:41.009Z,994.884
2023-12-09T06:11:42.041Z,994.8603
2023-12-09T06:12:41.241Z,994.8965
2023-12-09T06:13:42.069Z,994.8797
2023-12-09T06:14:41.067Z,994.8318
2023-12-09T06:15:41.102Z,994.7983
2023-12-09T06:16:42.067Z,994.7111
2023-12-09T06:17:41.097Z,994.7104
2023-12-09T06:18:42.049Z,994.687
2023-12-09T06:19:41.029Z,994.6708
2023-12-09T06:20:42.024Z,994.6508
2023-12-09T06:21:42.159Z,994.6731
2023-12-09T06:22:41.032Z,994.718
2023-12-09T06:23:42.077Z,994.7123
2023-12-09T06:24:41.168Z,994.6833
2023-12-09T06:25:42.029Z,994.6624
2023-12-09T06:26:42.032Z,994.6564
2023-12-09T06:27:41.111Z,994.6541
2023-12-09T06:28:42.074Z,994.6537
2023-12-09T06:29:41.093Z,994.6716
2023-12-09T06:30:42.128Z,994.6699
2023-12-09T06:31:42.124Z,994.6788
2023-12-09T06:32:42.110Z,994.7025
2023-12-09T06:33:41.331Z,994.7491
2023-12-09T06:34:41.102Z,994.7513
2023-12-09T06:35:42.087Z,994.7497
2023-12-09T06:36:42.116Z,994.7104
2023-12-09T06:37:42.153Z,994.7438
2023-12-09T06:38:41.232Z,994.6956
2023-12-09T06:39:41.094Z,994.7431
2023-12-09T06:40:42.088Z,994.6861
2023-12-09T06:41:42.146Z,994.6531
2023-12-09T06:42:42.315Z,994.6244
2023-12-09T06:43:41.078Z,994.6257
2023-12-09T06:44:41.123Z,994.6221
2023-12-09T06:45:42.115Z,994.592
2023-12-09T06:46:42.104Z,994.6006
2023-12-09T06:47:42.193Z,994.5488
2023-12-09T06:48:41.166Z,994.5538
2023-12-09T06:49:42.389Z,994.4462
2023-12-09T06:50:41.110Z,994.3958
2023-12-09T06:51:42.179Z,994.4334
2023-12-09T06:52:42.096Z,994.4383
2023-12-09T06:53:41.170Z,994.4684
2023-12-09T06:54:42.217Z,994.4426
2023-12-09T06:55:41.116Z,994.4525
2023-12-09T06:56:42.109Z,994.4067
2023-12-09T06:57:42.179Z,994.4417
2023-12-09T06:58:41.101Z,994.415
2023-12-09T06:59:42.170Z,994.4005
2023-12-09T07:00:41.327Z,994.3704
2023-12-09T07:01:42.183Z,994.3787
2023-12-09T07:02:49.261Z,994.3605
2023-12-09T07:03:42.228Z,994.3853
2023-12-09T07:04:42.251Z,994.3229
2023-12-09T07:05:41.177Z,994.3035
2023-12-09T07:06:42.185Z,994.2718
2023-12-09T07:07:41.130Z,994.2817
2023-12-09T07:08:41.177Z,994.3278
2023-12-09T07:09:42.254Z,994.2084
2023-12-09T07:10:41.134Z,994.2391
2023-12-09T07:11:42.120Z,994.2289
2023-12-09T07:12:41.220Z,994.2464
2023-12-09T07:13:41.142Z,994.2246
2023-12-09T07:14:42.234Z,994.2272
2023-12-09T07:15:41.171Z,994.1731
2023-12-09T07:16:42.189Z,994.1573
2023-12-09T07:17:41.300Z,994.0916
2023-12-09T07:18:43.057Z,994.1091
2023-12-09T07:19:41.217Z,994.1058
2023-12-09T07:20:41.162Z,994.0804
2023-12-09T07:21:42.168Z,994.1329
2023-12-09T07:22:41.169Z,994.0812
2023-12-09T07:23:42.209Z,994.0208
2023-12-09T07:24:41.309Z,994.0464
2023-12-09T07:25:41.182Z,994.0045
2023-12-09T07:26:42.191Z,994.0125
2023-12-09T07:27:41.229Z,994.003
2023-12-09T07:28:42.185Z,993.9812
2023-12-09T07:29:41.208Z,994.007
2023-12-09T07:30:42.286Z,994.0036
2023-12-09T07:31:42.196Z,993.9614
2023-12-09T07:32:41.334Z,993.9146
2023-12-09T07:33:42.346Z,993.889
2023-12-09T07:34:41.359Z,993.8525
2023-12-09T07:35:42.215Z,993.8333
2023-12-09T07:36:42.294Z,993.8234
2023-12-09T07:37:42.082Z,993.9152
2023-12-09T07:38:42.259Z,993.8449
2023-12-09T07:39:41.227Z,993.8169
2023-12-09T07:40:42.215Z,993.7234
2023-12-09T07:41:42.196Z,993.6909
2023-12-09T07:42:41.291Z,993.7145
2023-12-09T07:43:42.228Z,993.7307
2023-12-09T07:44:41.197Z,993.7775
2023-12-09T07:45:42.318Z,993.7673
2023-12-09T07:46:42.228Z,993.7667
2023-12-09T07:47:42.306Z,993.6353
2023-12-09T07:48:41.345Z,993.5284
2023-12-09T07:49:41.312Z,993.5657
2023-12-09T07:50:42.303Z,993.5309
2023-12-09T07:51:42.223Z,993.4872
2023-12-09T07:52:42.223Z,993.4272
2023-12-09T07:53:41.233Z,993.3832
2023-12-09T07:54:41.292Z,993.392
2023-12-09T07:55:42.213Z,993.3577
2023-12-09T07:56:42.248Z,993.3456
2023-12-09T07:57:42.356Z,993.3867
2023-12-09T07:58:41.238Z,993.3722
2023-12-09T07:59:42.276Z,993.3803
2023-12-09T08:00:41.397Z,993.3591
2023-12-09T08:01:42.335Z,993.3406
2023-12-09T08:02:42.234Z,993.3295
2023-12-09T08:03:41.365Z,993.3409
2023-12-09T08:04:42.350Z,993.3021
2023-12-09T08:05:41.822Z,993.3114
2023-12-09T08:06:42.347Z,993.3025
2023-12-09T08:07:42.305Z,993.2452
2023-12-09T08:08:41.293Z,993.2263
2023-12-09T08:09:42.336Z,993.2407
2023-12-09T08:10:41.260Z,993.1951
2023-12-09T08:11:42.297Z,993.1731
2023-12-09T08:12:42.342Z,993.165
2023-12-09T08:13:41.275Z,993.1606
2023-12-09T08:14:42.354Z,993.1861
2023-12-09T08:15:41.322Z,993.1769
2023-12-09T08:16:42.310Z,993.205
2023-12-09T08:17:41.394Z,993.2079
2023-12-09T08:18:41.337Z,993.1462
2023-12-09T08:19:42.504Z,993.1677
2023-12-09T08:20:41.283Z,993.1375
2023-12-09T08:21:42.389Z,993.116
2023-12-09T08:22:41.282Z,993.1202
2023-12-09T08:23:41.351Z,993.0848
2023-12-09T08:24:42.434Z,993.0386
2023-12-09T08:25:41.292Z,993.0687
2023-12-09T08:26:42.293Z,993.0316
2023-12-09T08:27:41.357Z,992.9875
2023-12-09T08:28:45.575Z,992.9213
2023-12-09T08:29:41.287Z,992.8894
2023-12-09T08:30:41.427Z,992.9438
2023-12-09T08:31:42.317Z,992.8449
2023-12-09T08:32:41.375Z,992.8647
2023-12-09T08:33:42.492Z,992.7878
2023-12-09T08:34:42.240Z,992.8248
2023-12-09T08:35:42.044Z,992.7216
2023-12-09T08:36:42.454Z,992.7715
2023-12-09T08:37:41.340Z,992.8995
2023-12-09T08:38:42.393Z,992.8013
2023-12-09T08:39:41.400Z,992.7725
2023-12-09T08:40:41.340Z,992.7467
2023-12-09T08:41:42.328Z,992.7483
2023-12-09T08:42:41.531Z,992.7941
2023-12-09T08:43:42.344Z,992.8231
2023-12-09T08:44:41.330Z,992.8114
2023-12-09T08:45:42.424Z,992.8164
2023-12-09T08:46:42.332Z,992.8173
2023-12-09T08:47:44.785Z,992.7735
2023-12-09T08:48:42.499Z,992.7916
2023-12-09T08:49:41.443Z,992.7849
2023-12-09T08:50:42.347Z,992.7941
2023-12-09T08:51:42.340Z,992.805
2023-12-09T08:52:41.349Z,992.7986
2023-12-09T08:53:42.400Z,992.7977
2023-12-09T08:54:41.457Z,992.7927
2023-12-09T08:55:42.369Z,992.8445
2023-12-09T08:56:42.485Z,992.8769
2023-12-09T08:57:42.433Z,992.8926
2023-12-09T08:58:41.363Z,992.905
2023-12-09T08:59:41.421Z,992.9264
2023-12-09T09:00:42.539Z,992.8541
2023-12-09T09:01:42.403Z,992.8531
2023-12-09T09:02:42.424Z,992.8008
2023-12-09T09:03:41.519Z,992.7449
2023-12-09T09:04:41.411Z,992.8127
2023-12-09T09:05:42.448Z,992.8642
2023-12-09T09:06:42.484Z,992.8304
2023-12-09T09:07:42.448Z,992.8066
2023-12-09T09:08:41.432Z,992.8019
2023-12-09T09:09:41.504Z,992.7816
2023-12-09T09:10:42.437Z,992.7733
2023-12-09T09:11:42.387Z,992.8547
2023-12-09T09:12:42.468Z,992.7522
2023-12-09T09:13:41.401Z,992.7506
2023-12-09T09:14:42.459Z,992.7097
2023-12-09T09:15:41.461Z,992.7683
2023-12-09T09:16:42.435Z,992.7689
2023-12-09T09:17:42.516Z,992.7905
2023-12-09T09:18:41.587Z,992.7583
2023-12-09T09:19:42.576Z,992.6859
2023-12-09T09:20:41.399Z,992.7161
2023-12-09T09:21:42.456Z,992.7017
2023-12-09T09:22:44.620Z,992.7009
2023-12-09T09:23:41.405Z,992.6469
2023-12-09T09:24:42.462Z,992.6259
2023-12-09T09:25:41.426Z,992.5824
2023-12-09T09:26:42.469Z,992.6058
2023-12-09T09:27:41.617Z,992.5277
2023-12-09T09:28:41.431Z,992.5447
2023-12-09T09:29:42.474Z,992.397
2023-12-09T09:30:41.527Z,992.4266
2023-12-09T09:31:42.463Z,992.3636
2023-12-09T09:32:41.494Z,992.4225
2023-12-09T09:33:41.602Z,992.368
2023-12-09T09:34:42.542Z,992.3061
2023-12-09T09:35:41.468Z,992.2355
2023-12-09T09:36:42.573Z,992.2123
2023-12-09T09:37:41.447Z,992.3287
2023-12-09T09:38:41.506Z,992.0892
2023-12-09T09:39:42.520Z,992.0602
2023-12-09T09:40:41.468Z,992.0635
2023-12-09T09:41:42.476Z,992.1251
2023-12-09T09:42:41.548Z,992.1429
2023-12-09T09:43:45.258Z,992.0994
2023-12-09T09:44:41.474Z,992.0978
2023-12-09T09:45:41.501Z,991.9919
2023-12-09T09:46:42.507Z,992.1141
2023-12-09T09:47:41.561Z,992.0824
2023-12-09T09:48:42.677Z,992.0245
2023-12-09T09:49:41.521Z,992.0514
2023-12-09T09:50:41.497Z,991.9885
2023-12-09T09:51:42.558Z,991.9931
2023-12-09T09:52:41.497Z,991.9207
2023-12-09T09:53:42.571Z,991.8198
2023-12-09T09:54:41.602Z,991.7809
2023-12-09T09:55:42.553Z,991.6739
2023-12-09T09:56:42.523Z,991.6208
2023-12-09T09:57:41.541Z,991.6705
2023-12-09T09:58:42.531Z,991.5676
2023-12-09T09:59:41.535Z,991.6039
2023-12-09T10:00:42.728Z,991.5817
2023-12-09T10:01:42.556Z,991.54
2023-12-09T10:02:41.498Z,991.4989
2023-12-09T10:03:42.596Z,991.3225
2023-12-09T10:04:41.570Z,991.3636
2023-12-09T10:05:42.544Z,991.2971
2023-12-09T10:06:42.601Z,991.3081
2023-12-09T10:07:41.554Z,991.205
2023-12-09T10:08:42.589Z,991.2097
2023-12-09T10:09:41.685Z,991.2775
2023-12-09T10:10:42.577Z,991.1238
2023-12-09T10:11:42.526Z,991.1083
2023-12-09T10:12:42.583Z,991.0364
2023-12-09T10:13:41.517Z,990.9992
2023-12-09T10:14:41.584Z,991.0136
2023-12-09T10:15:42.643Z,990.9969
2023-12-09T10:16:42.592Z,991.0269
2023-12-09T10:17:42.713Z,990.9816
2023-12-09T10:18:41.615Z,990.9453
2023-12-09T10:19:41.617Z,991.0188
2023-12-09T10:20:42.654Z,990.9985
2023-12-09T10:21:42.584Z,990.999
2023-12-09T10:22:42.617Z,990.9459
2023-12-09T10:23:41.586Z,990.9286
2023-12-09T10:24:50.522Z,990.9077
2023-12-09T10:25:41.534Z,990.8312
2023-12-09T10:26:42.607Z,990.8489
2023-12-09T10:27:42.806Z,990.8513
2023-12-09T10:28:41.565Z,990.8759
2023-12-09T10:29:44.880Z,990.7957
2023-12-09T10:30:41.711Z,990.7841
2023-12-09T10:31:42.632Z,990.7828
2023-12-09T10:32:42.694Z,990.7172
2023-12-09T10:33:41.756Z,990.7542
2023-12-09T10:34:42.676Z,990.647
2023-12-09T10:35:41.581Z,990.6297
2023-12-09T10:36:42.659Z,990.5834
2023-12-09T10:37:42.605Z,990.6536
2023-12-09T10:38:41.641Z,990.6942
2023-12-09T10:39:42.581Z,990.603
2023-12-09T10:40:41.575Z,990.5772
2023-12-09T10:41:42.639Z,990.6611
2023-12-09T10:42:41.677Z,990.4819
2023-12-09T10:43:41.597Z,990.4922
2023-12-09T10:44:42.633Z,990.4666
2023-12-09T10:45:41.655Z,990.4526
2023-12-09T10:46:42.670Z,990.4557
2023-12-09T10:47:41.683Z,990.4026
2023-12-09T10:48:41.678Z,990.3631
2023-12-09T10:49:42.756Z,990.421
2023-12-09T10:50:41.605Z,990.3354
2023-12-09T10:51:42.700Z,990.3002
2023-12-09T10:52:41.602Z,990.3264
2023-12-09T10:53:42.655Z,990.2523
2023-12-09T10:54:41.686Z,990.2431
2023-12-09T10:55:41.621Z,990.2072
2023-12-09T10:56:42.634Z,990.1158
2023-12-09T10:57:41.646Z,990.0776
2023-12-09T10:58:42.619Z,990.0415
2023-12-09T10:59:41.676Z,990.0616
2023-12-09T11:00:41.763Z,989.9546
2023-12-09T11:01:42.694Z,989.935
2023-12-09T11:02:41.735Z,989.8788
2023-12-09T11:03:42.778Z,989.7772
2023-12-09T11:04:41.761Z,989.8301
2023-12-09T11:05:41.700Z,989.6289
2023-12-09T11:06:42.701Z,989.627
2023-12-09T11:07:41.673Z,989.7067
2023-12-09T11:08:42.690Z,989.6181
2023-12-09T11:09:41.787Z,989.6089
2023-12-09T11:10:42.696Z,989.6777
2023-12-09T11:11:42.695Z,989.6547
2023-12-09T11:12:41.730Z,989.6287
2023-12-09T11:13:42.696Z,989.5698
2023-12-09T11:14:41.665Z,989.4719
2023-12-09T11:15:42.769Z,989.5637
2023-12-09T11:16:42.689Z,989.5639
2023-12-09T11:17:41.854Z,989.5666
2023-12-09T11:18:42.864Z,989.5089
2023-12-09T11:19:41.757Z,989.4554
2023-12-09T11:20:42.920Z,989.4235
2023-12-09T11:21:42.720Z,989.3348
2023-12-09T11:22:44.359Z,989.3178
2023-12-09T11:23:42.213Z,989.2972
2023-12-09T11:24:41.707Z,989.2209
2023-12-09T11:25:42.747Z,989.3063
2023-12-09T11:26:42.708Z,989.2131
2023-12-09T11:27:42.738Z,989.1577
2023-12-09T11:28:41.726Z,989.0497
2023-12-09T11:29:41.726Z,988.9645
2023-12-09T11:30:42.796Z,988.8969
2023-12-09T11:31:42.707Z,988.8631
2023-12-09T11:32:42.803Z,988.8898
2023-12-09T11:33:41.751Z,988.848
2023-12-09T11:34:41.774Z,988.7841
2023-12-09T11:35:42.770Z,988.8133
2023-12-09T11:36:42.803Z,988.7261
2023-12-09T11:37:42.719Z,988.7711
2023-12-09T11:38:41.755Z,988.7236
2023-12-09T11:39:42.815Z,988.6177
2023-12-09T11:40:41.707Z,988.5731
2023-12-09T11:41:42.709Z,988.5313
2023-12-09T11:42:42.793Z,988.4677
2023-12-09T11:43:41.718Z,988.3378
2023-12-09T11:44:42.741Z,988.3561
2023-12-09T11:45:41.818Z,988.308
2023-12-09T11:46:42.762Z,988.218